sensor_id;sensor_type;location;lat;lon;timestamp;P1;durP1;ratioP1;P2;durP2;ratioP2
47545;SDS011;50104;52.002;4.688;2023-03-13T00:02:15;10.20;;;3.30;;
47545;SDS011;50104;52.002;4.688;2023-03-13T00:07:16;12.10;;;3.50;;
47545;SDS011;50104;52.002;4.688;2023-03-13T00:12:17;17.85;;;3.80;;
47545;SDS011;50104;52.002;4.688;2023-03-13T00:17:19;16.58;;;3.88;;
47545;SDS011;50104;52.002;4.688;2023-03-13T00:22:20;15.93;;;3.80;;
47545;SDS011;50104;52.002;4.688;2023-03-13T00:27:21;17.77;;;5.05;;
47545;SDS011;50104;52.002;4.688;2023-03-13T00:32:21;15.93;;;5.10;;
47545;SDS011;50104;52.002;4.688;2023-03-13T00:37:23;16.17;;;5.57;;
47545;SDS011;50104;52.002;4.688;2023-03-13T00:42:24;18.40;;;5.70;;
47545;SDS011;50104;52.002;4.688;2023-03-13T00:47:25;18.90;;;6.78;;
47545;SDS011;50104;52.002;4.688;2023-03-13T00:52:26;15.30;;;6.38;;
47545;SDS011;50104;52.002;4.688;2023-03-13T00:57:29;12.07;;;5.80;;
47545;SDS011;50104;52.002;4.688;2023-03-13T01:02:30;15.88;;;7.05;;
47545;SDS011;50104;52.002;4.688;2023-03-13T01:07:31;16.98;;;7.38;;
47545;SDS011;50104;52.002;4.688;2023-03-13T01:12:31;13.90;;;6.78;;
47545;SDS011;50104;52.002;4.688;2023-03-13T01:17:32;17.48;;;7.28;;
47545;SDS011;50104;52.002;4.688;2023-03-13T01:22:34;17.70;;;6.95;;
47545;SDS011;50104;52.002;4.688;2023-03-13T01:27:35;27.65;;;8.90;;
47545;SDS011;50104;52.002;4.688;2023-03-13T01:32:36;20.17;;;8.85;;
47545;SDS011;50104;52.002;4.688;2023-03-13T01:37:37;17.98;;;8.07;;
47545;SDS011;50104;52.002;4.688;2023-03-13T01:42:47;17.13;;;9.02;;
47545;SDS011;50104;52.002;4.688;2023-03-13T01:47:53;19.38;;;9.30;;
47545;SDS011;50104;52.002;4.688;2023-03-13T01:52:54;23.75;;;10.70;;
47545;SDS011;50104;52.002;4.688;2023-03-13T01:57:55;19.77;;;9.38;;
47545;SDS011;50104;52.002;4.688;2023-03-13T02:02:56;24.02;;;11.30;;
47545;SDS011;50104;52.002;4.688;2023-03-13T02:08:09;28.38;;;9.30;;
47545;SDS011;50104;52.002;4.688;2023-03-13T02:13:19;33.42;;;13.43;;
47545;SDS011;50104;52.002;4.688;2023-03-13T02:18:20;32.63;;;12.07;;
47545;SDS011;50104;52.002;4.688;2023-03-13T02:23:21;28.15;;;13.95;;
47545;SDS011;50104;52.002;4.688;2023-03-13T02:28:42;30.67;;;14.50;;
47545;SDS011;50104;52.002;4.688;2023-03-13T02:33:43;38.05;;;13.63;;
47545;SDS011;50104;52.002;4.688;2023-03-13T02:38:46;30.40;;;13.07;;
47545;SDS011;50104;52.002;4.688;2023-03-13T02:43:56;31.98;;;13.32;;
47545;SDS011;50104;52.002;4.688;2023-03-13T02:48:57;43.38;;;16.83;;
47545;SDS011;50104;52.002;4.688;2023-03-13T02:54:01;31.83;;;15.98;;
47545;SDS011;50104;52.002;4.688;2023-03-13T03:04:07;35.47;;;11.95;;
47545;SDS011;50104;52.002;4.688;2023-03-13T03:09:07;27.40;;;10.82;;
47545;SDS011;50104;52.002;4.688;2023-03-13T03:14:09;26.35;;;10.77;;
47545;SDS011;50104;52.002;4.688;2023-03-13T03:19:10;26.00;;;10.55;;
47545;SDS011;50104;52.002;4.688;2023-03-13T03:24:11;30.52;;;10.45;;
47545;SDS011;50104;52.002;4.688;2023-03-13T03:29:12;27.13;;;9.52;;
47545;SDS011;50104;52.002;4.688;2023-03-13T03:34:13;17.80;;;8.40;;
47545;SDS011;50104;52.002;4.688;2023-03-13T03:39:15;23.40;;;8.30;;
47545;SDS011;50104;52.002;4.688;2023-03-13T03:44:15;16.90;;;8.52;;
47545;SDS011;50104;52.002;4.688;2023-03-13T03:49:16;16.90;;;8.05;;
47545;SDS011;50104;52.002;4.688;2023-03-13T03:54:17;15.15;;;6.53;;
47545;SDS011;50104;52.002;4.688;2023-03-13T03:59:19;22.00;;;8.52;;
47545;SDS011;50104;52.002;4.688;2023-03-13T04:04:21;20.25;;;7.60;;
47545;SDS011;50104;52.002;4.688;2023-03-13T04:09:22;17.42;;;7.22;;
47545;SDS011;50104;52.002;4.688;2023-03-13T04:14:22;27.25;;;9.90;;
47545;SDS011;50104;52.002;4.688;2023-03-13T04:19:23;14.48;;;7.15;;
47545;SDS011;50104;52.002;4.688;2023-03-13T04:24:24;15.27;;;7.38;;
47545;SDS011;50104;52.002;4.688;2023-03-13T04:29:25;18.40;;;7.90;;
47545;SDS011;50104;52.002;4.688;2023-03-13T04:34:26;14.52;;;8.15;;
47545;SDS011;50104;52.002;4.688;2023-03-13T04:39:27;13.20;;;7.45;;
47545;SDS011;50104;52.002;4.688;2023-03-13T04:44:27;24.65;;;8.23;;
47545;SDS011;50104;52.002;4.688;2023-03-13T04:49:30;20.77;;;8.23;;
47545;SDS011;50104;52.002;4.688;2023-03-13T04:54:30;14.95;;;6.53;;
47545;SDS011;50104;52.002;4.688;2023-03-13T04:59:31;15.50;;;6.75;;
47545;SDS011;50104;52.002;4.688;2023-03-13T05:04:32;15.20;;;6.95;;
47545;SDS011;50104;52.002;4.688;2023-03-13T05:09:33;16.10;;;6.57;;
47545;SDS011;50104;52.002;4.688;2023-03-13T05:14:34;11.73;;;6.22;;
47545;SDS011;50104;52.002;4.688;2023-03-13T05:19:35;16.48;;;6.75;;
47545;SDS011;50104;52.002;4.688;2023-03-13T05:24:36;14.23;;;6.00;;
47545;SDS011;50104;52.002;4.688;2023-03-13T05:29:37;16.33;;;5.65;;
47545;SDS011;50104;52.002;4.688;2023-03-13T05:34:38;13.35;;;5.50;;
47545;SDS011;50104;52.002;4.688;2023-03-13T05:39:39;20.50;;;5.18;;
47545;SDS011;50104;52.002;4.688;2023-03-13T05:44:40;10.40;;;4.45;;
47545;SDS011;50104;52.002;4.688;2023-03-13T05:49:41;14.90;;;4.00;;
47545;SDS011;50104;52.002;4.688;2023-03-13T05:54:42;20.33;;;5.03;;
47545;SDS011;50104;52.002;4.688;2023-03-13T05:59:43;16.35;;;4.63;;
47545;SDS011;50104;52.002;4.688;2023-03-13T06:04:44;11.43;;;4.07;;
47545;SDS011;50104;52.002;4.688;2023-03-13T06:09:44;14.02;;;3.83;;
47545;SDS011;50104;52.002;4.688;2023-03-13T06:14:45;11.63;;;3.95;;
47545;SDS011;50104;52.002;4.688;2023-03-13T06:19:46;6.63;;;3.58;;
47545;SDS011;50104;52.002;4.688;2023-03-13T06:24:47;8.80;;;3.97;;
47545;SDS011;50104;52.002;4.688;2023-03-13T06:29:48;7.18;;;3.60;;
47545;SDS011;50104;52.002;4.688;2023-03-13T06:34:49;10.68;;;4.68;;
47545;SDS011;50104;52.002;4.688;2023-03-13T06:39:51;10.73;;;4.72;;
47545;SDS011;50104;52.002;4.688;2023-03-13T06:44:52;9.77;;;4.57;;
47545;SDS011;50104;52.002;4.688;2023-03-13T06:49:53;10.82;;;4.78;;
47545;SDS011;50104;52.002;4.688;2023-03-13T06:54:54;10.68;;;5.72;;
47545;SDS011;50104;52.002;4.688;2023-03-13T06:59:55;16.73;;;6.43;;
47545;SDS011;50104;52.002;4.688;2023-03-13T07:04:55;10.82;;;5.25;;
47545;SDS011;50104;52.002;4.688;2023-03-13T07:09:56;9.27;;;4.07;;
47545;SDS011;50104;52.002;4.688;2023-03-13T07:14:57;13.48;;;5.00;;
47545;SDS011;50104;52.002;4.688;2023-03-13T07:19:58;17.77;;;6.53;;
47545;SDS011;50104;52.002;4.688;2023-03-13T07:24:59;15.18;;;5.68;;
47545;SDS011;50104;52.002;4.688;2023-03-13T07:30:00;19.58;;;5.78;;
47545;SDS011;50104;52.002;4.688;2023-03-13T07:35:01;16.80;;;6.07;;
47545;SDS011;50104;52.002;4.688;2023-03-13T07:40:04;13.45;;;5.13;;
47545;SDS011;50104;52.002;4.688;2023-03-13T07:45:05;15.52;;;5.50;;
47545;SDS011;50104;52.002;4.688;2023-03-13T07:50:08;14.15;;;6.03;;
47545;SDS011;50104;52.002;4.688;2023-03-13T07:55:09;13.60;;;5.07;;
47545;SDS011;50104;52.002;4.688;2023-03-13T08:00:10;10.98;;;4.97;;
47545;SDS011;50104;52.002;4.688;2023-03-13T08:05:15;11.40;;;4.60;;
47545;SDS011;50104;52.002;4.688;2023-03-13T08:10:16;15.00;;;4.88;;
47545;SDS011;50104;52.002;4.688;2023-03-13T08:15:17;11.20;;;5.32;;
47545;SDS011;50104;52.002;4.688;2023-03-13T08:20:37;7.35;;;4.60;;
47545;SDS011;50104;52.002;4.688;2023-03-13T08:25:38;11.00;;;4.82;;
47545;SDS011;50104;52.002;4.688;2023-03-13T08:30:38;9.85;;;4.38;;
47545;SDS011;50104;52.002;4.688;2023-03-13T08:35:39;9.50;;;3.83;;
47545;SDS011;50104;52.002;4.688;2023-03-13T08:40:40;11.52;;;4.15;;
47545;SDS011;50104;52.002;4.688;2023-03-13T08:45:41;9.10;;;2.65;;
47545;SDS011;50104;52.002;4.688;2023-03-13T08:50:42;7.82;;;3.00;;
47545;SDS011;50104;52.002;4.688;2023-03-13T08:55:43;9.13;;;2.85;;
47545;SDS011;50104;52.002;4.688;2023-03-13T09:00:44;10.75;;;2.95;;
47545;SDS011;50104;52.002;4.688;2023-03-13T09:05:45;8.45;;;2.38;;
47545;SDS011;50104;52.002;4.688;2023-03-13T09:10:46;8.73;;;2.35;;
47545;SDS011;50104;52.002;4.688;2023-03-13T09:21:24;11.55;;;2.08;;
47545;SDS011;50104;52.002;4.688;2023-03-13T09:26:31;8.38;;;2.38;;
47545;SDS011;50104;52.002;4.688;2023-03-13T09:31:32;6.38;;;1.98;;
47545;SDS011;50104;52.002;4.688;2023-03-13T09:36:33;4.25;;;1.92;;
47545;SDS011;50104;52.002;4.688;2023-03-13T09:57:16;2.63;;;1.40;;
47545;SDS011;50104;52.002;4.688;2023-03-13T10:02:26;7.63;;;1.48;;
47545;SDS011;50104;52.002;4.688;2023-03-13T10:07:33;3.28;;;1.17;;
47545;SDS011;50104;52.002;4.688;2023-03-13T10:12:37;4.82;;;1.95;;
47545;SDS011;50104;52.002;4.688;2023-03-13T10:17:44;3.72;;;1.23;;
47545;SDS011;50104;52.002;4.688;2023-03-13T10:22:45;2.90;;;1.65;;
47545;SDS011;50104;52.002;4.688;2023-03-13T10:27:51;4.80;;;1.55;;
47545;SDS011;50104;52.002;4.688;2023-03-13T10:32:58;2.85;;;1.25;;
47545;SDS011;50104;52.002;4.688;2023-03-13T10:38:17;5.50;;;2.55;;
47545;SDS011;50104;52.002;4.688;2023-03-13T10:43:19;3.78;;;1.23;;
47545;SDS011;50104;52.002;4.688;2023-03-13T10:48:25;4.05;;;1.40;;
47545;SDS011;50104;52.002;4.688;2023-03-13T10:58:35;5.47;;;1.65;;
47545;SDS011;50104;52.002;4.688;2023-03-13T11:03:44;6.90;;;1.73;;
47545;SDS011;50104;52.002;4.688;2023-03-13T11:08:47;8.85;;;1.60;;
47545;SDS011;50104;52.002;4.688;2023-03-13T11:13:48;4.28;;;1.60;;
47545;SDS011;50104;52.002;4.688;2023-03-13T11:24:23;7.40;;;1.42;;
47545;SDS011;50104;52.002;4.688;2023-03-13T11:57:38;13.88;;;2.10;;
47545;SDS011;50104;52.002;4.688;2023-03-13T12:08:10;9.30;;;2.17;;
47545;SDS011;50104;52.002;4.688;2023-03-13T12:13:28;9.35;;;1.70;;
47545;SDS011;50104;52.002;4.688;2023-03-13T12:18:41;14.27;;;2.08;;
47545;SDS011;50104;52.002;4.688;2023-03-13T12:23:49;7.35;;;1.73;;
47545;SDS011;50104;52.002;4.688;2023-03-13T12:34:13;15.05;;;3.45;;
47545;SDS011;50104;52.002;4.688;2023-03-13T12:39:27;13.77;;;2.40;;
47545;SDS011;50104;52.002;4.688;2023-03-13T12:44:35;9.13;;;2.35;;
47545;SDS011;50104;52.002;4.688;2023-03-13T12:49:45;10.98;;;2.30;;
47545;SDS011;50104;52.002;4.688;2023-03-13T12:55:05;9.93;;;2.92;;
47545;SDS011;50104;52.002;4.688;2023-03-13T13:00:40;12.10;;;2.85;;
47545;SDS011;50104;52.002;4.688;2023-03-13T13:11:33;13.00;;;2.78;;
47545;SDS011;50104;52.002;4.688;2023-03-13T13:16:40;12.48;;;3.08;;
47545;SDS011;50104;52.002;4.688;2023-03-13T13:21:43;15.52;;;2.83;;
47545;SDS011;50104;52.002;4.688;2023-03-13T13:26:46;9.43;;;2.28;;
47545;SDS011;50104;52.002;4.688;2023-03-13T13:47:30;16.95;;;3.65;;
47545;SDS011;50104;52.002;4.688;2023-03-13T13:52:36;13.88;;;3.05;;
47545;SDS011;50104;52.002;4.688;2023-03-13T13:57:41;18.92;;;3.20;;
47545;SDS011;50104;52.002;4.688;2023-03-13T14:02:51;17.77;;;2.65;;
47545;SDS011;50104;52.002;4.688;2023-03-13T14:08:04;14.20;;;3.33;;
47545;SDS011;50104;52.002;4.688;2023-03-13T14:13:15;17.40;;;3.33;;
47545;SDS011;50104;52.002;4.688;2023-03-13T14:28:42;14.88;;;3.15;;
47545;SDS011;50104;52.002;4.688;2023-03-13T14:33:49;12.80;;;2.83;;
47545;SDS011;50104;52.002;4.688;2023-03-13T14:38:52;18.50;;;4.20;;
47545;SDS011;50104;52.002;4.688;2023-03-13T14:44:05;14.57;;;3.15;;
47545;SDS011;50104;52.002;4.688;2023-03-13T14:49:17;15.13;;;3.50;;
47545;SDS011;50104;52.002;4.688;2023-03-13T14:59:35;13.27;;;3.08;;
47545;SDS011;50104;52.002;4.688;2023-03-13T15:09:58;17.73;;;3.35;;
47545;SDS011;50104;52.002;4.688;2023-03-13T15:14:59;16.88;;;3.75;;
47545;SDS011;50104;52.002;4.688;2023-03-13T15:20:00;13.38;;;2.63;;
47545;SDS011;50104;52.002;4.688;2023-03-13T15:25:01;13.75;;;3.40;;
47545;SDS011;50104;52.002;4.688;2023-03-13T15:30:06;15.30;;;3.00;;
47545;SDS011;50104;52.002;4.688;2023-03-13T15:35:22;16.58;;;3.88;;
47545;SDS011;50104;52.002;4.688;2023-03-13T15:40:29;12.55;;;3.50;;
47545;SDS011;50104;52.002;4.688;2023-03-13T15:45:30;23.33;;;3.92;;
47545;SDS011;50104;52.002;4.688;2023-03-13T15:50:31;23.83;;;3.38;;
47545;SDS011;50104;52.002;4.688;2023-03-13T15:55:32;22.05;;;4.15;;
47545;SDS011;50104;52.002;4.688;2023-03-13T16:00:33;14.57;;;3.25;;
47545;SDS011;50104;52.002;4.688;2023-03-13T16:05:34;24.88;;;4.38;;
47545;SDS011;50104;52.002;4.688;2023-03-13T16:10:34;15.57;;;3.13;;
47545;SDS011;50104;52.002;4.688;2023-03-13T16:15:35;21.55;;;3.97;;
47545;SDS011;50104;52.002;4.688;2023-03-13T16:20:37;12.75;;;3.17;;
47545;SDS011;50104;52.002;4.688;2023-03-13T16:25:38;16.52;;;3.67;;
47545;SDS011;50104;52.002;4.688;2023-03-13T16:30:39;21.83;;;3.65;;
47545;SDS011;50104;52.002;4.688;2023-03-13T16:35:42;17.60;;;3.88;;
47545;SDS011;50104;52.002;4.688;2023-03-13T16:40:44;18.17;;;3.60;;
47545;SDS011;50104;52.002;4.688;2023-03-13T16:45:45;16.73;;;3.45;;
47545;SDS011;50104;52.002;4.688;2023-03-13T16:50:46;21.58;;;3.88;;
47545;SDS011;50104;52.002;4.688;2023-03-13T16:55:48;24.45;;;4.15;;
47545;SDS011;50104;52.002;4.688;2023-03-13T17:00:49;17.27;;;3.33;;
47545;SDS011;50104;52.002;4.688;2023-03-13T17:05:50;23.95;;;4.40;;
47545;SDS011;50104;52.002;4.688;2023-03-13T17:10:51;16.27;;;3.42;;
47545;SDS011;50104;52.002;4.688;2023-03-13T17:15:54;18.25;;;3.28;;
47545;SDS011;50104;52.002;4.688;2023-03-13T17:20:55;20.70;;;3.17;;
47545;SDS011;50104;52.002;4.688;2023-03-13T17:25:56;20.05;;;4.10;;
47545;SDS011;50104;52.002;4.688;2023-03-13T17:30:57;22.60;;;3.47;;
47545;SDS011;50104;52.002;4.688;2023-03-13T17:35:58;18.63;;;3.72;;
47545;SDS011;50104;52.002;4.688;2023-03-13T17:40:59;19.58;;;3.92;;
47545;SDS011;50104;52.002;4.688;2023-03-13T17:46:00;20.05;;;3.55;;
47545;SDS011;50104;52.002;4.688;2023-03-13T17:51:01;23.92;;;5.35;;
47545;SDS011;50104;52.002;4.688;2023-03-13T17:56:02;20.80;;;4.40;;
47545;SDS011;50104;52.002;4.688;2023-03-13T18:01:20;25.17;;;4.00;;
47545;SDS011;50104;52.002;4.688;2023-03-13T18:06:24;11.88;;;3.90;;
47545;SDS011;50104;52.002;4.688;2023-03-13T18:11:28;21.33;;;3.75;;
47545;SDS011;50104;52.002;4.688;2023-03-13T18:16:31;26.48;;;4.40;;
47545;SDS011;50104;52.002;4.688;2023-03-13T18:21:42;19.08;;;4.07;;
47545;SDS011;50104;52.002;4.688;2023-03-13T18:26:45;18.58;;;4.35;;
47545;SDS011;50104;52.002;4.688;2023-03-13T18:31:48;25.05;;;4.35;;
47545;SDS011;50104;52.002;4.688;2023-03-13T18:36:49;18.52;;;4.35;;
47545;SDS011;50104;52.002;4.688;2023-03-13T18:41:51;16.15;;;3.17;;
47545;SDS011;50104;52.002;4.688;2023-03-13T18:46:52;20.40;;;3.53;;
47545;SDS011;50104;52.002;4.688;2023-03-13T18:51:54;27.95;;;4.47;;
47545;SDS011;50104;52.002;4.688;2023-03-13T18:56:55;19.15;;;4.43;;
47545;SDS011;50104;52.002;4.688;2023-03-13T19:01:55;19.50;;;3.05;;
47545;SDS011;50104;52.002;4.688;2023-03-13T19:06:56;14.95;;;3.35;;
47545;SDS011;50104;52.002;4.688;2023-03-13T19:11:57;19.38;;;3.67;;
47545;SDS011;50104;52.002;4.688;2023-03-13T19:16:58;20.63;;;4.45;;
47545;SDS011;50104;52.002;4.688;2023-03-13T19:21:59;12.90;;;3.80;;
47545;SDS011;50104;52.002;4.688;2023-03-13T19:27:01;18.33;;;3.80;;
47545;SDS011;50104;52.002;4.688;2023-03-13T19:32:02;15.02;;;3.38;;
47545;SDS011;50104;52.002;4.688;2023-03-13T19:37:09;21.70;;;3.47;;
47545;SDS011;50104;52.002;4.688;2023-03-13T19:42:11;12.98;;;2.67;;
47545;SDS011;50104;52.002;4.688;2023-03-13T19:47:12;21.67;;;3.30;;
47545;SDS011;50104;52.002;4.688;2023-03-13T19:52:14;18.98;;;3.40;;
47545;SDS011;50104;52.002;4.688;2023-03-13T19:57:16;16.48;;;2.95;;
47545;SDS011;50104;52.002;4.688;2023-03-13T20:02:17;24.67;;;3.20;;
47545;SDS011;50104;52.002;4.688;2023-03-13T20:07:18;12.05;;;3.38;;
47545;SDS011;50104;52.002;4.688;2023-03-13T20:12:19;23.02;;;3.70;;
47545;SDS011;50104;52.002;4.688;2023-03-13T20:17:19;15.20;;;3.17;;
47545;SDS011;50104;52.002;4.688;2023-03-13T20:27:46;15.60;;;4.07;;
47545;SDS011;50104;52.002;4.688;2023-03-13T20:32:47;16.63;;;3.28;;
47545;SDS011;50104;52.002;4.688;2023-03-13T20:37:48;17.02;;;3.33;;
47545;SDS011;50104;52.002;4.688;2023-03-13T20:42:52;20.02;;;3.85;;
47545;SDS011;50104;52.002;4.688;2023-03-13T20:47:53;17.17;;;3.22;;
47545;SDS011;50104;52.002;4.688;2023-03-13T20:52:54;17.02;;;3.03;;
47545;SDS011;50104;52.002;4.688;2023-03-13T20:57:55;17.70;;;3.15;;
47545;SDS011;50104;52.002;4.688;2023-03-13T21:02:56;15.20;;;2.78;;
47545;SDS011;50104;52.002;4.688;2023-03-13T21:07:56;14.35;;;3.22;;
47545;SDS011;50104;52.002;4.688;2023-03-13T21:12:57;15.23;;;3.13;;
47545;SDS011;50104;52.002;4.688;2023-03-13T21:17:58;10.65;;;2.88;;
47545;SDS011;50104;52.002;4.688;2023-03-13T21:23:00;18.00;;;3.78;;
47545;SDS011;50104;52.002;4.688;2023-03-13T21:28:00;17.77;;;3.03;;
47545;SDS011;50104;52.002;4.688;2023-03-13T21:33:01;15.70;;;3.55;;
47545;SDS011;50104;52.002;4.688;2023-03-13T21:38:02;17.83;;;3.35;;
47545;SDS011;50104;52.002;4.688;2023-03-13T21:43:03;14.23;;;3.08;;
47545;SDS011;50104;52.002;4.688;2023-03-13T21:48:04;18.70;;;3.03;;
47545;SDS011;50104;52.002;4.688;2023-03-13T21:53:05;17.88;;;3.00;;
47545;SDS011;50104;52.002;4.688;2023-03-13T21:58:06;16.95;;;3.50;;
47545;SDS011;50104;52.002;4.688;2023-03-13T22:03:07;13.68;;;3.10;;
47545;SDS011;50104;52.002;4.688;2023-03-13T22:08:08;17.00;;;4.03;;
47545;SDS011;50104;52.002;4.688;2023-03-13T22:13:09;21.75;;;2.80;;
47545;SDS011;50104;52.002;4.688;2023-03-13T22:18:13;21.55;;;4.00;;
47545;SDS011;50104;52.002;4.688;2023-03-13T22:23:15;16.77;;;3.75;;
47545;SDS011;50104;52.002;4.688;2023-03-13T22:28:16;18.83;;;3.90;;
47545;SDS011;50104;52.002;4.688;2023-03-13T22:33:17;16.10;;;3.42;;
47545;SDS011;50104;52.002;4.688;2023-03-13T22:38:20;15.02;;;3.40;;
47545;SDS011;50104;52.002;4.688;2023-03-13T22:43:21;11.60;;;2.80;;
47545;SDS011;50104;52.002;4.688;2023-03-13T22:48:22;16.55;;;3.55;;
47545;SDS011;50104;52.002;4.688;2023-03-13T22:53:23;15.07;;;2.97;;
47545;SDS011;50104;52.002;4.688;2023-03-13T22:58:24;11.65;;;3.33;;
47545;SDS011;50104;52.002;4.688;2023-03-13T23:03:26;16.25;;;3.17;;
47545;SDS011;50104;52.002;4.688;2023-03-13T23:08:27;13.55;;;3.13;;
47545;SDS011;50104;52.002;4.688;2023-03-13T23:13:28;13.60;;;2.92;;
47545;SDS011;50104;52.002;4.688;2023-03-13T23:18:29;8.25;;;2.15;;
47545;SDS011;50104;52.002;4.688;2023-03-13T23:23:30;9.13;;;3.03;;
47545;SDS011;50104;52.002;4.688;2023-03-13T23:28:32;20.25;;;3.67;;
47545;SDS011;50104;52.002;4.688;2023-03-13T23:33:34;13.40;;;2.90;;
47545;SDS011;50104;52.002;4.688;2023-03-13T23:38:35;11.80;;;2.38;;
47545;SDS011;50104;52.002;4.688;2023-03-13T23:43:36;11.90;;;2.33;;
47545;SDS011;50104;52.002;4.688;2023-03-13T23:48:37;12.00;;;2.10;;
47545;SDS011;50104;52.002;4.688;2023-03-13T23:53:39;9.73;;;2.13;;
47545;SDS011;50104;52.002;4.688;2023-03-13T23:58:41;9.50;;;2.67;;
